KFBG/FBG METAR and TAF weather

Enter ICAO airport designator
Station Type Date Time Source
KFBG METAR 2022/01/28 23:56 UTC NOAA

KFBG 282356Z AUTO 02005KT 10SM OVC100 06/M03 A2979 RMK AO2 SLP093 60000 T00581028 10083 20049 58018 $


Station Type Date Time Source
KFBG Decoded METAR 2022/01/28 23:56 UTC NOAA

Fort Bragg / Simmons Army Airfield, NC, United States (KFBG) 35-08N 078-56W 74M
Jan 28, 2022 - 06:56 PM EST / 2022.01.28 2356 UTC
Wind: from the NNE (020 degrees) at 6 MPH (5 KT):0
Visibility: 10 mile(s):0
Sky conditions: overcast
Temperature: 42.4 F (5.8 C)
Dew Point: 27.0 F (-2.8 C)
Relative Humidity: 53%
Pressure (altimeter): 29.79 in. Hg (1008 hPa)
Pressure tendency: 0.05 inches (1.8 hPa) lower than three hours ago
ob: KFBG 282356Z AUTO 02005KT 10SM OVC100 06/M03 A2979 RMK AO2 SLP093 60000 T00581028 10083 20049 58018
cycle: 0

Station Type Date Time Source
KFBG TAF 2022/01/28 18:09 UTC NOAA

TAF TAF KFBG 281800Z 2818/2924 VRB06KT 9999 BKN080 QNH2979INS
BECMG 2903/2904 35006KT 9999 BKN050 QNH2984INS
BECMG 2906/2907 34006KT 9999 BKN010 QNH2977INS
BECMG 2908/2909 32012G18KT 6000 -SN OVC007 650079 510003 QNH2985INS
BECMG 2911/2912 31018G25KT 3200 SN OVC006 650069 510003 QNH2978INS
BECMG 2915/2916 33020G25KT 9999 NSW BKN020 510003 QNH2990INS
BECMG 2923/2924 33009KT 9999 FEW150 510023 QNH3000INS TX10/2818Z TNM03/2906Z

Example: see airport list